createdAt,value
2022-12-25T00:00:34.477Z,5.61
2022-12-25T00:03:25.285Z,5.56
2022-12-25T00:05:56.077Z,5.53
2022-12-25T00:08:26.766Z,5.49
2022-12-25T00:11:01.206Z,5.45
2022-12-25T00:13:31.929Z,5.40
2022-12-25T00:16:06.230Z,5.41
2022-12-25T00:18:37.033Z,5.44
2022-12-25T00:21:08.188Z,5.43
2022-12-25T00:23:38.914Z,5.41
2022-12-25T00:26:10.513Z,5.40
2022-12-25T00:28:41.216Z,5.39
2022-12-25T00:31:12.452Z,5.40
2022-12-25T00:33:44.013Z,5.38
2022-12-25T00:36:15.222Z,5.30
2022-12-25T00:38:46.188Z,5.24
2022-12-25T00:41:17.913Z,5.23
2022-12-25T00:43:48.530Z,5.27
2022-12-25T00:46:19.448Z,5.32
2022-12-25T00:48:50.323Z,5.35
2022-12-25T00:51:21.177Z,5.39
2022-12-25T00:53:51.950Z,5.43
2022-12-25T00:56:22.685Z,5.45
2022-12-25T00:58:53.586Z,5.48
2022-12-25T01:01:24.475Z,5.45
2022-12-25T01:03:55.360Z,5.38
2022-12-25T01:06:26.057Z,5.37
2022-12-25T01:09:14.442Z,5.31
2022-12-25T01:11:45.528Z,5.33
2022-12-25T01:14:16.233Z,5.36
2022-12-25T01:16:47.011Z,5.37
2022-12-25T01:19:17.664Z,5.37
2022-12-25T01:21:48.407Z,5.36
2022-12-25T01:24:19.087Z,5.35
2022-12-25T01:26:49.809Z,5.29
2022-12-25T01:29:20.584Z,5.23
2022-12-25T01:31:51.322Z,5.18
2022-12-25T01:34:22.050Z,5.18
2022-12-25T01:36:52.964Z,5.22
2022-12-25T01:39:23.683Z,5.29
2022-12-25T01:41:54.355Z,5.35
2022-12-25T01:44:42.425Z,5.35
2022-12-25T01:47:13.144Z,5.37
2022-12-25T01:49:44.183Z,5.35
2022-12-25T01:52:18.838Z,5.36
2022-12-25T01:54:55.278Z,5.32
2022-12-25T01:57:26.823Z,5.31
2022-12-25T01:59:57.637Z,5.30
2022-12-25T02:02:28.635Z,5.28
2022-12-25T02:04:59.971Z,5.24
2022-12-25T02:07:31.321Z,5.13
2022-12-25T02:10:02.179Z,5.10
2022-12-25T02:12:33.623Z,5.07
2022-12-25T02:15:06.428Z,5.02
2022-12-25T02:17:39.701Z,4.95
2022-12-25T02:20:18.303Z,4.91
2022-12-25T02:22:52.094Z,4.95
2022-12-25T02:25:27.214Z,5.00
2022-12-25T02:28:01.774Z,4.97
2022-12-25T02:30:33.616Z,4.96
2022-12-25T02:33:18.694Z,4.97
2022-12-25T02:35:51.622Z,5.00
2022-12-25T02:38:23.447Z,4.97
2022-12-25T02:40:55.034Z,4.90
2022-12-25T02:43:44.205Z,4.79
2022-12-25T02:46:33.322Z,4.75
2022-12-25T02:49:22.734Z,4.73
2022-12-25T02:52:11.936Z,4.70
2022-12-25T02:55:07.033Z,4.66
2022-12-25T02:57:56.082Z,4.63
2022-12-25T03:00:49.646Z,4.57
2022-12-25T03:03:49.276Z,4.53
2022-12-25T03:06:45.993Z,4.55
2022-12-25T03:09:35.016Z,4.54
2022-12-25T03:12:06.921Z,4.57
2022-12-25T03:14:55.432Z,4.60
2022-12-25T03:17:26.364Z,4.62
2022-12-25T03:20:14.672Z,4.60
2022-12-25T03:23:02.895Z,4.60
2022-12-25T03:25:51.297Z,4.60
2022-12-25T03:28:22.043Z,4.52
2022-12-25T03:31:13.582Z,4.46
2022-12-25T03:34:45.958Z,4.44
2022-12-25T03:37:36.779Z,4.43
2022-12-25T03:40:27.571Z,4.37
2022-12-25T03:43:17.966Z,4.35
2022-12-25T03:46:07.256Z,4.28
2022-12-25T03:48:55.601Z,4.29
2022-12-25T03:51:44.769Z,4.34
2022-12-25T03:54:32.974Z,4.41
2022-12-25T03:57:21.111Z,4.41
2022-12-25T04:00:09.299Z,4.39
2022-12-25T04:02:57.462Z,4.38
2022-12-25T04:05:45.751Z,4.35
2022-12-25T04:08:34.244Z,4.37
2022-12-25T04:11:22.910Z,4.35
2022-12-25T04:14:11.889Z,4.32
2022-12-25T04:17:01.138Z,4.37
2022-12-25T04:19:50.253Z,4.43
2022-12-25T04:22:39.028Z,4.54
2022-12-25T04:25:29.819Z,4.65
2022-12-25T04:28:21.257Z,4.69
2022-12-25T04:31:10.633Z,4.76
2022-12-25T04:34:00.005Z,4.87
2022-12-25T04:36:31.410Z,4.99
2022-12-25T04:39:02.641Z,5.10
2022-12-25T04:41:34.019Z,5.17
2022-12-25T04:44:05.759Z,5.18
2022-12-25T04:46:37.312Z,5.26
2022-12-25T04:49:08.561Z,5.32
2022-12-25T04:51:39.880Z,5.34
2022-12-25T04:54:11.327Z,5.25
2022-12-25T04:56:45.746Z,5.25
2022-12-25T04:59:17.599Z,5.23
2022-12-25T05:01:48.890Z,5.23
2022-12-25T05:04:20.245Z,5.23
2022-12-25T05:06:51.707Z,5.22
2022-12-25T05:09:23.283Z,5.23
2022-12-25T05:11:54.987Z,5.22
2022-12-25T05:14:26.281Z,5.22
2022-12-25T05:16:57.522Z,5.19
2022-12-25T05:19:28.902Z,5.19
2022-12-25T05:22:00.295Z,5.20
2022-12-25T05:24:31.969Z,5.18
2022-12-25T05:27:03.091Z,5.19
2022-12-25T05:29:34.245Z,5.24
2022-12-25T05:32:05.829Z,5.30
2022-12-25T05:34:37.284Z,5.32
2022-12-25T05:37:08.920Z,5.33
2022-12-25T05:39:40.165Z,5.36
2022-12-25T05:42:11.546Z,5.36
2022-12-25T05:44:42.970Z,5.37
2022-12-25T05:47:14.406Z,5.40
2022-12-25T05:49:45.747Z,5.42
2022-12-25T05:52:16.914Z,5.44
2022-12-25T05:54:48.098Z,5.46
2022-12-25T05:57:19.449Z,5.47
2022-12-25T05:59:50.877Z,5.47
2022-12-25T06:02:22.484Z,5.42
2022-12-25T06:04:53.971Z,5.31
2022-12-25T06:07:25.174Z,5.23
2022-12-25T06:09:56.524Z,5.22
2022-12-25T06:12:28.020Z,5.30
2022-12-25T06:14:59.390Z,5.36
2022-12-25T06:17:30.538Z,5.43
2022-12-25T06:20:01.792Z,5.47
2022-12-25T06:22:33.476Z,5.44
2022-12-25T06:25:05.260Z,5.32
2022-12-25T06:27:36.669Z,5.24
2022-12-25T06:30:08.931Z,5.27
2022-12-25T06:32:39.957Z,5.29
2022-12-25T06:35:11.220Z,5.25
2022-12-25T06:37:42.669Z,5.26
2022-12-25T06:40:14.635Z,5.26
2022-12-25T06:42:45.916Z,5.25
2022-12-25T06:45:17.260Z,5.21
2022-12-25T06:47:48.716Z,5.22
2022-12-25T06:50:20.169Z,5.30
2022-12-25T06:52:51.710Z,5.35
2022-12-25T06:55:22.989Z,5.39
2022-12-25T06:57:54.091Z,5.43
2022-12-25T07:00:25.565Z,5.49
2022-12-25T07:02:57.239Z,5.61
2022-12-25T07:05:28.847Z,5.68
2022-12-25T07:08:00.200Z,5.64
2022-12-25T07:10:31.416Z,5.68
2022-12-25T07:13:02.618Z,5.70
2022-12-25T07:15:33.973Z,5.72
2022-12-25T07:18:05.542Z,5.75
2022-12-25T07:20:36.954Z,5.83
2022-12-25T07:23:08.127Z,5.84
2022-12-25T07:25:39.589Z,5.81
2022-12-25T07:28:11.096Z,5.81
2022-12-25T07:30:42.555Z,5.80
2022-12-25T07:33:13.739Z,5.83
2022-12-25T07:35:45.070Z,5.89
2022-12-25T07:38:16.524Z,5.97
2022-12-25T07:40:48.232Z,6.06
2022-12-25T07:43:19.622Z,6.11
2022-12-25T07:45:51.029Z,6.12
2022-12-25T07:48:22.265Z,6.20
2022-12-25T07:50:58.274Z,6.30
2022-12-25T07:53:29.948Z,6.35
2022-12-25T07:56:02.315Z,6.44
2022-12-25T07:58:33.456Z,6.54
2022-12-25T08:01:05.804Z,6.64
2022-12-25T08:03:37.382Z,6.73
2022-12-25T08:06:10.529Z,6.81
2022-12-25T08:08:42.289Z,6.83
2022-12-25T08:11:13.673Z,6.88
2022-12-25T08:13:44.822Z,6.88
2022-12-25T08:16:16.209Z,6.84
2022-12-25T08:18:47.779Z,6.84
2022-12-25T08:21:20.045Z,6.92
2022-12-25T08:23:51.459Z,6.97
2022-12-25T08:26:23.789Z,7.04
2022-12-25T08:28:55.218Z,7.09
2022-12-25T08:31:27.748Z,7.16
2022-12-25T08:33:59.755Z,7.22
2022-12-25T08:36:31.211Z,7.31
2022-12-25T08:39:03.561Z,7.40
2022-12-25T08:41:36.749Z,7.46
2022-12-25T08:44:08.209Z,7.53
2022-12-25T08:46:40.663Z,7.58
2022-12-25T08:49:12.032Z,7.65
2022-12-25T08:51:45.170Z,7.73
2022-12-25T08:54:16.573Z,7.79
2022-12-25T08:56:48.029Z,7.86
2022-12-25T08:59:19.468Z,7.90
2022-12-25T09:01:50.738Z,7.95
2022-12-25T09:04:22.070Z,8.00
2022-12-25T09:06:53.519Z,8.02
2022-12-25T09:09:28.965Z,8.07
2022-12-25T09:12:00.424Z,8.15
2022-12-25T09:14:32.020Z,8.23
2022-12-25T09:17:03.382Z,8.28
2022-12-25T09:19:34.783Z,8.33
2022-12-25T09:22:06.231Z,8.40
2022-12-25T09:24:39.548Z,8.47
2022-12-25T09:27:10.688Z,8.54
2022-12-25T09:29:44.542Z,8.60
2022-12-25T09:32:15.763Z,8.69
2022-12-25T09:34:47.183Z,8.81
2022-12-25T09:37:18.607Z,8.93
2022-12-25T09:39:50.095Z,9.05
2022-12-25T09:42:21.667Z,9.18
2022-12-25T09:44:54.645Z,9.32
2022-12-25T09:47:28.055Z,9.44
2022-12-25T09:50:00.197Z,9.58
2022-12-25T09:52:31.912Z,9.72
2022-12-25T09:55:05.219Z,9.86
2022-12-25T09:57:36.722Z,10.01
2022-12-25T10:00:14.015Z,10.20
2022-12-25T10:02:57.875Z,10.44
2022-12-25T10:05:35.828Z,10.76
2022-12-25T10:08:08.856Z,11.13
2022-12-25T10:10:47.646Z,11.51
2022-12-25T10:13:27.495Z,11.88
2022-12-25T10:16:00.906Z,12.25
2022-12-25T10:18:36.335Z,12.69
2022-12-25T10:21:12.792Z,13.05
2022-12-25T10:23:45.900Z,13.44
2022-12-25T10:26:18.887Z,13.81
2022-12-25T10:28:51.667Z,14.05
2022-12-25T10:31:23.876Z,14.19
2022-12-25T10:33:55.408Z,14.25
2022-12-25T10:36:27.426Z,14.28
2022-12-25T10:38:59.021Z,14.30
2022-12-25T10:41:36.870Z,14.30
2022-12-25T10:44:15.156Z,14.27
2022-12-25T10:46:48.983Z,14.23
2022-12-25T10:49:21.381Z,14.16
2022-12-25T10:51:53.001Z,14.07
2022-12-25T10:54:25.371Z,14.02
2022-12-25T10:56:57.900Z,13.99
2022-12-25T10:59:29.859Z,13.94
2022-12-25T11:02:06.988Z,13.91
2022-12-25T11:04:38.626Z,13.89
2022-12-25T11:07:14.772Z,13.86
2022-12-25T11:09:51.797Z,13.84
2022-12-25T11:12:23.886Z,13.85
2022-12-25T11:14:58.867Z,13.81
2022-12-25T11:17:30.276Z,13.77
2022-12-25T11:20:02.527Z,13.73
2022-12-25T11:22:38.236Z,13.71
2022-12-25T11:25:16.623Z,13.72
2022-12-25T11:27:56.695Z,13.69
2022-12-25T11:30:28.374Z,13.67
2022-12-25T11:33:00.296Z,13.68
2022-12-25T11:35:33.285Z,13.72
2022-12-25T11:38:05.004Z,13.85
2022-12-25T11:40:37.266Z,14.00
2022-12-25T11:43:10.765Z,14.22
2022-12-25T11:45:43.022Z,14.48
2022-12-25T11:48:15.772Z,14.72
2022-12-25T11:50:48.348Z,14.99
2022-12-25T11:53:21.850Z,15.23
2022-12-25T11:55:55.670Z,15.39
2022-12-25T11:58:28.392Z,15.54
2022-12-25T12:00:59.703Z,15.62
2022-12-25T12:03:32.450Z,15.64
2022-12-25T12:06:05.005Z,15.60
2022-12-25T12:08:36.764Z,15.54
2022-12-25T12:11:16.941Z,15.46
2022-12-25T12:13:52.073Z,15.37
2022-12-25T12:16:23.538Z,15.27
2022-12-25T12:18:54.974Z,15.19
2022-12-25T12:21:27.758Z,15.07
2022-12-25T12:24:02.922Z,14.98
2022-12-25T12:26:37.028Z,14.94
2022-12-25T12:29:08.717Z,14.87
2022-12-25T12:31:41.896Z,14.79
2022-12-25T12:34:20.068Z,14.75
2022-12-25T12:36:51.667Z,14.75
2022-12-25T12:39:25.571Z,14.73
2022-12-25T12:41:56.762Z,14.65
2022-12-25T12:44:28.356Z,14.55
2022-12-25T12:47:00.471Z,14.45
2022-12-25T12:49:33.779Z,14.39
2022-12-25T12:52:05.892Z,14.31
2022-12-25T12:54:37.056Z,14.22
2022-12-25T12:57:10.192Z,14.13
2022-12-25T12:59:43.666Z,14.03
2022-12-25T13:02:31.815Z,13.93
2022-12-25T13:05:04.455Z,13.84
2022-12-25T13:07:44.182Z,13.80
2022-12-25T13:10:20.170Z,13.82
2022-12-25T13:12:53.917Z,13.85
2022-12-25T13:15:26.228Z,13.87
2022-12-25T13:17:57.477Z,13.89
2022-12-25T13:20:32.232Z,13.92
2022-12-25T13:23:13.750Z,13.90
2022-12-25T13:25:45.273Z,13.82
2022-12-25T13:28:16.956Z,13.75
2022-12-25T13:30:48.633Z,13.74
2022-12-25T13:33:20.960Z,13.70
2022-12-25T13:35:52.416Z,13.64
2022-12-25T13:38:23.972Z,13.62
2022-12-25T13:41:09.578Z,13.63
2022-12-25T13:43:41.115Z,13.62
2022-12-25T13:46:15.132Z,13.58
2022-12-25T13:48:46.587Z,13.53
2022-12-25T13:51:18.140Z,13.49
2022-12-25T13:53:49.596Z,13.43
2022-12-25T13:56:20.327Z,13.40
2022-12-25T13:58:54.579Z,13.38
2022-12-25T14:01:26.074Z,13.38
2022-12-25T14:03:57.965Z,13.37
2022-12-25T14:06:30.156Z,13.33
2022-12-25T14:09:01.475Z,13.28
2022-12-25T14:11:32.783Z,13.23
2022-12-25T14:14:05.477Z,13.19
2022-12-25T14:16:37.276Z,13.14
2022-12-25T14:19:22.355Z,13.10
2022-12-25T14:21:55.075Z,13.07
2022-12-25T14:24:26.530Z,13.02
2022-12-25T14:27:02.189Z,12.99
2022-12-25T14:29:37.179Z,12.94
2022-12-25T14:32:09.758Z,12.92
2022-12-25T14:34:41.056Z,12.93
2022-12-25T14:37:15.333Z,12.93
2022-12-25T14:39:48.220Z,12.92
2022-12-25T14:42:21.622Z,12.90
2022-12-25T14:45:03.459Z,12.90
2022-12-25T14:47:35.384Z,12.87
2022-12-25T14:50:15.931Z,12.84
2022-12-25T14:52:47.387Z,12.81
2022-12-25T14:55:20.944Z,12.73
2022-12-25T14:57:53.330Z,12.64
2022-12-25T15:00:25.610Z,12.59
2022-12-25T15:02:57.303Z,12.52
2022-12-25T15:05:33.069Z,12.41
2022-12-25T15:08:06.509Z,12.36
2022-12-25T15:13:29.969Z,12.26
2022-12-25T15:16:02.803Z,12.18
2022-12-25T15:18:35.976Z,12.14
2022-12-25T15:21:08.448Z,12.14
2022-12-25T15:23:39.982Z,12.12
2022-12-25T15:26:12.470Z,12.07
2022-12-25T15:28:43.701Z,11.98
2022-12-25T15:31:19.418Z,11.87
2022-12-25T15:33:51.065Z,11.82
2022-12-25T15:36:22.577Z,11.81
2022-12-25T15:38:54.025Z,11.81
2022-12-25T15:41:39.860Z,11.83
2022-12-25T15:44:11.602Z,11.86
2022-12-25T15:46:43.373Z,11.91
2022-12-25T15:49:15.412Z,11.94
2022-12-25T15:51:47.217Z,11.95
2022-12-25T15:54:18.511Z,11.95
2022-12-25T15:56:50.502Z,11.90
2022-12-25T15:59:22.039Z,11.87
2022-12-25T16:01:54.209Z,11.91
2022-12-25T16:04:26.224Z,11.90
2022-12-25T16:06:57.679Z,11.91
2022-12-25T16:09:29.070Z,11.90
2022-12-25T16:12:00.464Z,11.81
2022-12-25T16:14:31.916Z,11.81
2022-12-25T16:17:03.292Z,11.88
2022-12-25T16:19:34.565Z,11.90
2022-12-25T16:22:12.288Z,11.86
2022-12-25T16:24:43.576Z,11.86
2022-12-25T16:27:14.822Z,11.90
2022-12-25T16:29:46.031Z,11.92
2022-12-25T16:32:17.592Z,11.92
2022-12-25T16:34:49.762Z,11.93
2022-12-25T16:37:22.432Z,11.92
2022-12-25T16:39:54.034Z,11.86
2022-12-25T16:42:25.269Z,11.83
2022-12-25T16:44:56.575Z,11.85
2022-12-25T16:47:28.053Z,11.83
2022-12-25T16:49:59.685Z,11.83
2022-12-25T16:52:31.669Z,11.84
2022-12-25T16:55:03.181Z,11.87
2022-12-25T16:57:34.707Z,11.87
2022-12-25T17:00:08.855Z,11.79
2022-12-25T17:02:41.708Z,11.72
2022-12-25T17:05:13.669Z,11.63
2022-12-25T17:07:45.415Z,11.57
2022-12-25T17:10:17.428Z,11.51
2022-12-25T17:12:48.807Z,11.43
2022-12-25T17:15:20.594Z,11.33
2022-12-25T17:17:52.097Z,11.31
2022-12-25T17:20:23.482Z,11.27
2022-12-25T17:22:54.864Z,11.28
2022-12-25T17:25:26.928Z,11.29
2022-12-25T17:27:58.479Z,11.30
2022-12-25T17:30:30.103Z,11.28
2022-12-25T17:33:01.321Z,11.28
2022-12-25T17:35:32.588Z,11.26
2022-12-25T17:38:04.124Z,11.24
2022-12-25T17:40:35.340Z,11.18
2022-12-25T17:43:07.146Z,11.08
2022-12-25T17:45:39.175Z,10.96
2022-12-25T17:48:10.652Z,10.87
2022-12-25T17:50:42.212Z,10.81
2022-12-25T17:53:13.856Z,10.77
2022-12-25T17:55:45.516Z,10.72
2022-12-25T17:58:16.758Z,10.63
2022-12-25T18:00:48.035Z,10.56
2022-12-25T18:03:19.663Z,10.53
2022-12-25T18:05:51.486Z,10.48
2022-12-25T18:08:23.006Z,10.42
2022-12-25T18:10:54.339Z,10.37
2022-12-25T18:13:25.608Z,10.33
2022-12-25T18:15:57.188Z,10.30
2022-12-25T18:18:28.699Z,10.24
2022-12-25T18:21:00.247Z,10.18
2022-12-25T18:23:31.389Z,10.14
2022-12-25T18:26:03.654Z,10.09
2022-12-25T18:28:36.358Z,10.05
2022-12-25T18:31:11.567Z,9.91
2022-12-25T18:33:43.015Z,9.75
2022-12-25T18:36:14.755Z,9.70
2022-12-25T18:38:45.945Z,9.66
2022-12-25T18:41:17.432Z,9.63
2022-12-25T18:43:54.011Z,9.62
2022-12-25T18:46:27.473Z,9.61
2022-12-25T18:48:59.452Z,9.59
2022-12-25T18:51:36.632Z,9.55
2022-12-25T18:54:08.975Z,9.52
2022-12-25T18:56:40.611Z,9.49
2022-12-25T18:59:12.126Z,9.44
2022-12-25T19:01:43.458Z,9.39
2022-12-25T19:04:16.457Z,9.35
2022-12-25T19:06:49.471Z,9.32
2022-12-25T19:09:21.003Z,9.25
2022-12-25T19:11:53.886Z,9.20
2022-12-25T19:14:26.071Z,9.16
2022-12-25T19:16:57.590Z,9.12
2022-12-25T19:19:29.172Z,9.08
2022-12-25T19:22:00.632Z,9.05
2022-12-25T19:24:32.143Z,9.04
2022-12-25T19:27:03.359Z,9.03
2022-12-25T19:29:34.884Z,9.02
2022-12-25T19:32:06.569Z,9.00
2022-12-25T19:34:38.280Z,8.96
2022-12-25T19:37:15.559Z,8.88
2022-12-25T19:39:50.131Z,8.83
2022-12-25T19:42:22.290Z,8.79
2022-12-25T19:44:53.545Z,8.72
2022-12-25T19:47:25.431Z,8.66
2022-12-25T19:50:02.848Z,8.61
2022-12-25T19:52:37.672Z,8.59
2022-12-25T19:55:10.325Z,8.58
2022-12-25T19:57:46.413Z,8.55
2022-12-25T20:00:18.815Z,8.51
2022-12-25T20:02:50.889Z,8.44
2022-12-25T20:05:23.385Z,8.39
2022-12-25T20:07:56.608Z,8.33
2022-12-25T20:10:28.223Z,8.26
2022-12-25T20:12:59.851Z,8.19
2022-12-25T20:15:31.667Z,8.21
2022-12-25T20:18:03.342Z,8.23
2022-12-25T20:20:34.889Z,8.25
2022-12-25T20:23:06.781Z,8.21
2022-12-25T20:25:45.030Z,8.19
2022-12-25T20:28:16.567Z,8.17
2022-12-25T20:30:48.207Z,8.10
2022-12-25T20:33:19.853Z,8.06
2022-12-25T20:35:55.461Z,8.06
2022-12-25T20:38:28.865Z,8.04
2022-12-25T20:41:26.248Z,8.01
2022-12-25T20:43:55.990Z,7.97
2022-12-25T20:46:27.774Z,7.93
2022-12-25T20:49:02.855Z,7.74
2022-12-25T20:51:35.930Z,7.62
2022-12-25T20:54:09.588Z,7.60
2022-12-25T20:56:41.771Z,7.59
2022-12-25T20:59:14.925Z,7.59
2022-12-25T21:01:46.804Z,7.61
2022-12-25T21:04:18.592Z,7.63
2022-12-25T21:06:50.379Z,7.66
2022-12-25T21:09:21.693Z,7.64
2022-12-25T21:11:53.253Z,7.63
2022-12-25T21:14:26.621Z,7.65
2022-12-25T21:16:58.392Z,7.68
2022-12-25T21:19:30.089Z,7.69
2022-12-25T21:22:01.701Z,7.73
2022-12-25T21:24:32.982Z,7.73
2022-12-25T21:27:05.012Z,7.68
2022-12-25T21:29:36.586Z,7.66
2022-12-25T21:32:25.984Z,7.67
2022-12-25T21:34:57.234Z,7.69
2022-12-25T21:37:29.974Z,7.67
2022-12-25T21:40:01.565Z,7.67
2022-12-25T21:42:33.153Z,7.70
2022-12-25T21:45:06.149Z,7.67
2022-12-25T21:47:59.969Z,7.62
2022-12-25T21:50:47.000Z,7.62
2022-12-25T21:53:18.842Z,7.62
2022-12-25T21:56:00.748Z,7.64
2022-12-25T21:58:32.523Z,7.64
2022-12-25T22:01:04.895Z,7.57
2022-12-25T22:03:36.418Z,7.34
2022-12-25T22:06:25.855Z,7.12
2022-12-25T22:08:57.318Z,7.05
2022-12-25T22:11:47.049Z,7.06
2022-12-25T22:14:51.558Z,7.01
2022-12-25T22:17:43.316Z,6.83
2022-12-25T22:20:15.687Z,6.85
2022-12-25T22:22:47.167Z,6.90
2022-12-25T22:25:19.860Z,6.97
2022-12-25T22:27:53.605Z,6.98
2022-12-25T22:30:29.685Z,6.95
2022-12-25T22:33:03.175Z,6.98
2022-12-25T22:35:34.699Z,7.02
2022-12-25T22:38:06.397Z,7.03
2022-12-25T22:40:38.919Z,6.97
2022-12-25T22:43:10.453Z,6.90
2022-12-25T22:45:41.917Z,6.83
2022-12-25T22:48:13.805Z,6.79
2022-12-25T22:50:45.480Z,6.75
2022-12-25T22:53:17.008Z,6.73
2022-12-25T22:55:49.456Z,6.78
2022-12-25T22:58:21.376Z,6.87
2022-12-25T23:00:53.117Z,6.91
2022-12-25T23:03:24.616Z,6.94
2022-12-25T23:06:00.179Z,6.98
2022-12-25T23:08:31.428Z,7.05
2022-12-25T23:11:07.560Z,7.14
2022-12-25T23:13:57.285Z,7.18
2022-12-25T23:16:33.238Z,7.22
2022-12-25T23:19:22.551Z,7.25
2022-12-25T23:22:11.294Z,7.26
2022-12-25T23:25:05.600Z,7.24
2022-12-25T23:27:38.480Z,7.23
2022-12-25T23:30:11.314Z,7.24
2022-12-25T23:32:42.911Z,7.24
2022-12-25T23:35:14.977Z,7.24
2022-12-25T23:37:53.384Z,7.25
2022-12-25T23:40:25.525Z,7.27
2022-12-25T23:42:59.565Z,7.25
2022-12-25T23:45:32.863Z,7.26
2022-12-25T23:48:05.616Z,7.26
2022-12-25T23:50:40.505Z,7.26
2022-12-25T23:53:15.643Z,7.24
2022-12-25T23:55:53.298Z,7.23
2022-12-25T23:58:27.280Z,7.23
